sensor_id;sensor_type;location;lat;lon;timestamp;temperature;humidity
12682;DHT22;6405;59.208;18.216;2023-01-20T00:01:35;-5.00;99.90
12682;DHT22;6405;59.208;18.216;2023-01-20T00:04:01;-5.00;99.90
12682;DHT22;6405;59.208;18.216;2023-01-20T00:06:28;-5.00;99.90
12682;DHT22;6405;59.208;18.216;2023-01-20T00:08:56;-5.00;99.90
12682;DHT22;6405;59.208;18.216;2023-01-20T00:11:24;-5.00;99.90
12682;DHT22;6405;59.208;18.216;2023-01-20T00:14:03;-5.10;99.90
12682;DHT22;6405;59.208;18.216;2023-01-20T00:16:30;-5.10;99.90
12682;DHT22;6405;59.208;18.216;2023-01-20T00:18:57;-5.10;99.90
12682;DHT22;6405;59.208;18.216;2023-01-20T00:21:26;-5.10;99.90
12682;DHT22;6405;59.208;18.216;2023-01-20T00:23:53;-5.10;99.90
12682;DHT22;6405;59.208;18.216;2023-01-20T00:26:22;-5.10;99.90
12682;DHT22;6405;59.208;18.216;2023-01-20T00:28:49;-5.10;99.90
12682;DHT22;6405;59.208;18.216;2023-01-20T00:31:18;-5.10;99.90
12682;DHT22;6405;59.208;18.216;2023-01-20T00:33:48;-5.10;99.90
12682;DHT22;6405;59.208;18.216;2023-01-20T00:36:17;-5.10;99.90
12682;DHT22;6405;59.208;18.216;2023-01-20T00:38:45;-5.20;99.90
12682;DHT22;6405;59.208;18.216;2023-01-20T00:41:13;-5.20;99.90
12682;DHT22;6405;59.208;18.216;2023-01-20T00:43:40;-5.20;99.90
12682;DHT22;6405;59.208;18.216;2023-01-20T00:46:07;-5.20;99.90
12682;DHT22;6405;59.208;18.216;2023-01-20T00:48:34;-5.20;99.90
12682;DHT22;6405;59.208;18.216;2023-01-20T00:51:04;-5.20;99.90
12682;DHT22;6405;59.208;18.216;2023-01-20T00:53:31;-5.20;99.90
12682;DHT22;6405;59.208;18.216;2023-01-20T00:55:57;-5.30;99.90
12682;DHT22;6405;59.208;18.216;2023-01-20T00:58:24;-5.20;99.90
12682;DHT22;6405;59.208;18.216;2023-01-20T01:00:53;-5.30;99.90
12682;DHT22;6405;59.208;18.216;2023-01-20T01:03:21;-5.30;99.90
12682;DHT22;6405;59.208;18.216;2023-01-20T01:05:48;-5.20;99.90
12682;DHT22;6405;59.208;18.216;2023-01-20T01:08:15;-5.30;99.90
12682;DHT22;6405;59.208;18.216;2023-01-20T01:10:42;-5.30;99.90
12682;DHT22;6405;59.208;18.216;2023-01-20T01:13:09;-5.30;99.90
12682;DHT22;6405;59.208;18.216;2023-01-20T01:15:36;-5.30;99.90
12682;DHT22;6405;59.208;18.216;2023-01-20T01:18:03;-5.30;99.90
12682;DHT22;6405;59.208;18.216;2023-01-20T01:20:29;-5.30;99.90
12682;DHT22;6405;59.208;18.216;2023-01-20T01:22:56;-5.30;99.90
12682;DHT22;6405;59.208;18.216;2023-01-20T01:25:23;-5.30;99.90
12682;DHT22;6405;59.208;18.216;2023-01-20T01:27:49;-5.30;99.90
12682;DHT22;6405;59.208;18.216;2023-01-20T01:30:18;-5.30;99.90
12682;DHT22;6405;59.208;18.216;2023-01-20T01:32:46;-5.30;99.90
12682;DHT22;6405;59.208;18.216;2023-01-20T01:35:12;-5.30;99.90
12682;DHT22;6405;59.208;18.216;2023-01-20T01:37:39;-5.30;99.90
12682;DHT22;6405;59.208;18.216;2023-01-20T01:40:06;-5.40;99.90
12682;DHT22;6405;59.208;18.216;2023-01-20T01:42:34;-5.40;99.90
12682;DHT22;6405;59.208;18.216;2023-01-20T01:47:44;-5.40;99.90
12682;DHT22;6405;59.208;18.216;2023-01-20T01:50:13;-5.40;99.90
12682;DHT22;6405;59.208;18.216;2023-01-20T01:52:44;-5.40;99.90
12682;DHT22;6405;59.208;18.216;2023-01-20T01:55:13;-5.40;99.90
12682;DHT22;6405;59.208;18.216;2023-01-20T01:57:41;-5.30;99.90
12682;DHT22;6405;59.208;18.216;2023-01-20T02:00:11;-5.30;99.90
12682;DHT22;6405;59.208;18.216;2023-01-20T02:02:38;-5.40;99.90
12682;DHT22;6405;59.208;18.216;2023-01-20T02:05:06;-5.40;99.90
12682;DHT22;6405;59.208;18.216;2023-01-20T02:07:33;-5.40;99.90
12682;DHT22;6405;59.208;18.216;2023-01-20T02:10:00;-5.40;99.90
12682;DHT22;6405;59.208;18.216;2023-01-20T02:12:28;-5.40;99.90
12682;DHT22;6405;59.208;18.216;2023-01-20T02:14:57;-5.40;99.90
12682;DHT22;6405;59.208;18.216;2023-01-20T02:20:42;-5.50;99.90
12682;DHT22;6405;59.208;18.216;2023-01-20T02:26:51;-5.40;99.90
12682;DHT22;6405;59.208;18.216;2023-01-20T02:29:42;-5.50;99.90
12682;DHT22;6405;59.208;18.216;2023-01-20T02:32:33;-5.50;99.90
12682;DHT22;6405;59.208;18.216;2023-01-20T02:35:13;-5.50;99.90
12682;DHT22;6405;59.208;18.216;2023-01-20T02:38:05;-5.50;99.90
12682;DHT22;6405;59.208;18.216;2023-01-20T02:46:29;-5.50;99.90
12682;DHT22;6405;59.208;18.216;2023-01-20T02:49:44;-5.50;99.90
12682;DHT22;6405;59.208;18.216;2023-01-20T02:52:14;-5.60;99.90
12682;DHT22;6405;59.208;18.216;2023-01-20T02:54:47;-5.50;99.90
12682;DHT22;6405;59.208;18.216;2023-01-20T02:57:20;-5.50;99.90
12682;DHT22;6405;59.208;18.216;2023-01-20T02:59:51;-5.50;99.90
12682;DHT22;6405;59.208;18.216;2023-01-20T03:02:23;-5.50;99.90
12682;DHT22;6405;59.208;18.216;2023-01-20T03:05:03;-5.50;99.90
12682;DHT22;6405;59.208;18.216;2023-01-20T03:07:33;-5.50;99.90
12682;DHT22;6405;59.208;18.216;2023-01-20T03:10:06;-5.40;99.90
12682;DHT22;6405;59.208;18.216;2023-01-20T03:13:12;-5.40;99.90
12682;DHT22;6405;59.208;18.216;2023-01-20T03:15:40;-5.40;99.90
12682;DHT22;6405;59.208;18.216;2023-01-20T03:18:09;-5.30;99.90
12682;DHT22;6405;59.208;18.216;2023-01-20T03:20:35;-5.20;99.90
12682;DHT22;6405;59.208;18.216;2023-01-20T03:23:05;-5.20;99.90
12682;DHT22;6405;59.208;18.216;2023-01-20T03:25:31;-5.10;99.90
12682;DHT22;6405;59.208;18.216;2023-01-20T03:27:59;-5.00;99.90
12682;DHT22;6405;59.208;18.216;2023-01-20T03:30:27;-4.90;99.90
12682;DHT22;6405;59.208;18.216;2023-01-20T03:32:53;-4.80;99.90
12682;DHT22;6405;59.208;18.216;2023-01-20T03:35:22;-4.80;99.90
12682;DHT22;6405;59.208;18.216;2023-01-20T03:37:48;-4.70;99.90
12682;DHT22;6405;59.208;18.216;2023-01-20T03:40:16;-4.70;99.90
12682;DHT22;6405;59.208;18.216;2023-01-20T03:43:00;-4.60;99.90
12682;DHT22;6405;59.208;18.216;2023-01-20T03:45:59;-4.60;99.90
12682;DHT22;6405;59.208;18.216;2023-01-20T03:48:46;-4.60;99.90
12682;DHT22;6405;59.208;18.216;2023-01-20T03:51:33;-4.70;99.90
12682;DHT22;6405;59.208;18.216;2023-01-20T03:54:02;-4.70;99.90
12682;DHT22;6405;59.208;18.216;2023-01-20T03:56:58;-4.70;99.90
12682;DHT22;6405;59.208;18.216;2023-01-20T03:59:33;-4.80;99.90
12682;DHT22;6405;59.208;18.216;2023-01-20T04:02:06;-4.80;99.90
12682;DHT22;6405;59.208;18.216;2023-01-20T04:04:35;-4.80;99.90
12682;DHT22;6405;59.208;18.216;2023-01-20T04:07:09;-4.80;99.90
12682;DHT22;6405;59.208;18.216;2023-01-20T04:09:39;-4.90;99.90
12682;DHT22;6405;59.208;18.216;2023-01-20T04:12:08;-4.90;99.90
12682;DHT22;6405;59.208;18.216;2023-01-20T04:14:35;-4.90;99.90
12682;DHT22;6405;59.208;18.216;2023-01-20T04:17:03;-4.90;99.90
12682;DHT22;6405;59.208;18.216;2023-01-20T04:19:30;-4.90;99.90
12682;DHT22;6405;59.208;18.216;2023-01-20T04:22:16;-4.90;99.90
12682;DHT22;6405;59.208;18.216;2023-01-20T04:24:58;-4.90;99.90
12682;DHT22;6405;59.208;18.216;2023-01-20T04:27:26;-4.90;99.90
12682;DHT22;6405;59.208;18.216;2023-01-20T04:29:52;-4.90;99.90
12682;DHT22;6405;59.208;18.216;2023-01-20T04:32:19;-4.90;99.90
12682;DHT22;6405;59.208;18.216;2023-01-20T04:34:44;-4.90;99.90
12682;DHT22;6405;59.208;18.216;2023-01-20T04:37:11;-4.80;99.90
12682;DHT22;6405;59.208;18.216;2023-01-20T04:39:40;-4.70;99.90
12682;DHT22;6405;59.208;18.216;2023-01-20T04:42:10;-4.70;99.90
12682;DHT22;6405;59.208;18.216;2023-01-20T04:44:37;-4.60;99.90
12682;DHT22;6405;59.208;18.216;2023-01-20T04:47:03;-4.60;99.90
12682;DHT22;6405;59.208;18.216;2023-01-20T04:49:33;-4.50;99.90
12682;DHT22;6405;59.208;18.216;2023-01-20T04:52:01;-4.50;99.90
12682;DHT22;6405;59.208;18.216;2023-01-20T04:54:27;-4.50;99.90
12682;DHT22;6405;59.208;18.216;2023-01-20T04:56:54;-4.50;99.90
12682;DHT22;6405;59.208;18.216;2023-01-20T04:59:21;-4.50;99.90
12682;DHT22;6405;59.208;18.216;2023-01-20T05:01:48;-4.40;99.90
12682;DHT22;6405;59.208;18.216;2023-01-20T05:04:15;-4.40;99.90
12682;DHT22;6405;59.208;18.216;2023-01-20T05:06:42;-4.40;99.90
12682;DHT22;6405;59.208;18.216;2023-01-20T05:09:13;-4.30;99.90
12682;DHT22;6405;59.208;18.216;2023-01-20T05:11:43;-4.30;99.90
12682;DHT22;6405;59.208;18.216;2023-01-20T05:14:11;-4.20;99.90
12682;DHT22;6405;59.208;18.216;2023-01-20T05:16:38;-4.10;99.90
12682;DHT22;6405;59.208;18.216;2023-01-20T05:19:10;-4.10;99.90
12682;DHT22;6405;59.208;18.216;2023-01-20T05:21:36;-4.10;99.90
12682;DHT22;6405;59.208;18.216;2023-01-20T05:24:03;-4.00;99.90
12682;DHT22;6405;59.208;18.216;2023-01-20T05:26:31;-4.00;99.90
12682;DHT22;6405;59.208;18.216;2023-01-20T05:28:58;-3.90;99.90
12682;DHT22;6405;59.208;18.216;2023-01-20T05:31:24;-3.90;99.90
12682;DHT22;6405;59.208;18.216;2023-01-20T05:33:51;-3.90;99.90
12682;DHT22;6405;59.208;18.216;2023-01-20T05:36:18;-3.90;99.90
12682;DHT22;6405;59.208;18.216;2023-01-20T05:38:45;-3.80;99.90
12682;DHT22;6405;59.208;18.216;2023-01-20T05:41:12;-3.80;99.90
12682;DHT22;6405;59.208;18.216;2023-01-20T05:43:40;-3.80;99.90
12682;DHT22;6405;59.208;18.216;2023-01-20T05:46:07;-3.70;99.90
12682;DHT22;6405;59.208;18.216;2023-01-20T05:48:34;-3.70;99.90
12682;DHT22;6405;59.208;18.216;2023-01-20T05:51:01;-3.60;99.90
12682;DHT22;6405;59.208;18.216;2023-01-20T05:53:31;-3.60;99.90
12682;DHT22;6405;59.208;18.216;2023-01-20T05:56:01;-3.60;99.90
12682;DHT22;6405;59.208;18.216;2023-01-20T05:58:28;-3.60;99.90
12682;DHT22;6405;59.208;18.216;2023-01-20T06:01:11;-3.50;99.90
12682;DHT22;6405;59.208;18.216;2023-01-20T06:03:39;-3.50;99.90
12682;DHT22;6405;59.208;18.216;2023-01-20T06:06:08;-3.50;99.90
12682;DHT22;6405;59.208;18.216;2023-01-20T06:08:39;-3.20;99.90
12682;DHT22;6405;59.208;18.216;2023-01-20T06:11:06;-3.40;99.90
12682;DHT22;6405;59.208;18.216;2023-01-20T06:13:34;-3.40;99.90
12682;DHT22;6405;59.208;18.216;2023-01-20T06:16:01;-3.40;99.90
12682;DHT22;6405;59.208;18.216;2023-01-20T06:18:28;-3.40;99.90
12682;DHT22;6405;59.208;18.216;2023-01-20T06:20:58;-3.50;99.90
12682;DHT22;6405;59.208;18.216;2023-01-20T06:23:26;-3.50;99.90
12682;DHT22;6405;59.208;18.216;2023-01-20T06:26:01;-3.50;99.90
12682;DHT22;6405;59.208;18.216;2023-01-20T06:28:30;-3.50;99.90
12682;DHT22;6405;59.208;18.216;2023-01-20T06:31:12;-3.60;99.90
12682;DHT22;6405;59.208;18.216;2023-01-20T06:33:40;-3.70;99.90
12682;DHT22;6405;59.208;18.216;2023-01-20T06:36:08;-3.70;99.90
12682;DHT22;6405;59.208;18.216;2023-01-20T06:38:38;-3.70;99.90
12682;DHT22;6405;59.208;18.216;2023-01-20T06:41:07;-3.80;99.90
12682;DHT22;6405;59.208;18.216;2023-01-20T06:43:36;-3.80;99.90
12682;DHT22;6405;59.208;18.216;2023-01-20T06:46:10;-3.80;99.90
12682;DHT22;6405;59.208;18.216;2023-01-20T06:48:37;-3.90;99.90
12682;DHT22;6405;59.208;18.216;2023-01-20T06:51:08;-3.90;99.90
12682;DHT22;6405;59.208;18.216;2023-01-20T06:53:35;-3.90;99.90
12682;DHT22;6405;59.208;18.216;2023-01-20T06:56:03;-4.00;99.90
12682;DHT22;6405;59.208;18.216;2023-01-20T06:58:32;-4.00;99.90
12682;DHT22;6405;59.208;18.216;2023-01-20T07:01:05;-4.10;99.90
12682;DHT22;6405;59.208;18.216;2023-01-20T07:03:34;-4.10;99.90
12682;DHT22;6405;59.208;18.216;2023-01-20T07:06:03;-4.10;99.90
12682;DHT22;6405;59.208;18.216;2023-01-20T07:08:30;-4.10;99.90
12682;DHT22;6405;59.208;18.216;2023-01-20T07:10:59;-4.10;99.90
12682;DHT22;6405;59.208;18.216;2023-01-20T07:13:26;-4.10;99.90
12682;DHT22;6405;59.208;18.216;2023-01-20T07:15:53;-4.00;99.90
12682;DHT22;6405;59.208;18.216;2023-01-20T07:18:20;-3.90;99.90
12682;DHT22;6405;59.208;18.216;2023-01-20T07:20:55;-3.80;99.90
12682;DHT22;6405;59.208;18.216;2023-01-20T07:23:23;-3.80;99.90
12682;DHT22;6405;59.208;18.216;2023-01-20T07:26:00;-3.60;99.90
12682;DHT22;6405;59.208;18.216;2023-01-20T07:28:27;-3.50;99.90
12682;DHT22;6405;59.208;18.216;2023-01-20T07:31:01;-3.50;99.90
12682;DHT22;6405;59.208;18.216;2023-01-20T07:33:27;-3.40;99.90
12682;DHT22;6405;59.208;18.216;2023-01-20T07:35:53;-3.40;99.90
12682;DHT22;6405;59.208;18.216;2023-01-20T07:38:20;-3.30;99.90
12682;DHT22;6405;59.208;18.216;2023-01-20T07:40:48;-3.30;99.90
12682;DHT22;6405;59.208;18.216;2023-01-20T07:43:14;-3.30;99.90
12682;DHT22;6405;59.208;18.216;2023-01-20T07:45:41;-3.20;99.90
12682;DHT22;6405;59.208;18.216;2023-01-20T07:48:08;-3.20;99.90
12682;DHT22;6405;59.208;18.216;2023-01-20T07:50:36;-3.30;99.90
12682;DHT22;6405;59.208;18.216;2023-01-20T07:53:04;-3.30;99.90
12682;DHT22;6405;59.208;18.216;2023-01-20T07:55:30;-3.30;99.90
12682;DHT22;6405;59.208;18.216;2023-01-20T07:57:58;-3.40;99.90
12682;DHT22;6405;59.208;18.216;2023-01-20T08:00:26;-3.40;99.90
12682;DHT22;6405;59.208;18.216;2023-01-20T08:02:53;-3.40;99.90
12682;DHT22;6405;59.208;18.216;2023-01-20T08:05:20;-3.40;99.90
12682;DHT22;6405;59.208;18.216;2023-01-20T08:07:51;-3.40;99.90
12682;DHT22;6405;59.208;18.216;2023-01-20T08:10:18;-3.40;99.90
12682;DHT22;6405;59.208;18.216;2023-01-20T08:12:45;-3.40;99.90
12682;DHT22;6405;59.208;18.216;2023-01-20T08:15:13;-3.40;99.90
12682;DHT22;6405;59.208;18.216;2023-01-20T08:17:40;-3.30;99.90
12682;DHT22;6405;59.208;18.216;2023-01-20T08:20:08;-3.30;99.90
12682;DHT22;6405;59.208;18.216;2023-01-20T08:22:35;-3.30;99.90
12682;DHT22;6405;59.208;18.216;2023-01-20T08:25:02;-3.20;99.90
12682;DHT22;6405;59.208;18.216;2023-01-20T08:27:28;-3.10;99.90
12682;DHT22;6405;59.208;18.216;2023-01-20T08:29:57;-3.10;99.90
12682;DHT22;6405;59.208;18.216;2023-01-20T08:32:23;-3.10;99.90
12682;DHT22;6405;59.208;18.216;2023-01-20T08:34:50;-3.00;99.90
12682;DHT22;6405;59.208;18.216;2023-01-20T08:37:16;-3.00;99.90
12682;DHT22;6405;59.208;18.216;2023-01-20T08:39:43;-3.00;99.90
12682;DHT22;6405;59.208;18.216;2023-01-20T08:42:09;-2.90;99.90
12682;DHT22;6405;59.208;18.216;2023-01-20T08:44:38;-2.90;99.90
12682;DHT22;6405;59.208;18.216;2023-01-20T08:47:04;-2.90;99.90
12682;DHT22;6405;59.208;18.216;2023-01-20T08:49:32;-2.80;99.90
12682;DHT22;6405;59.208;18.216;2023-01-20T08:51:59;-2.70;99.90
12682;DHT22;6405;59.208;18.216;2023-01-20T08:54:28;-2.70;99.90
12682;DHT22;6405;59.208;18.216;2023-01-20T08:57:00;-2.70;99.90
12682;DHT22;6405;59.208;18.216;2023-01-20T08:59:27;-2.60;99.90
12682;DHT22;6405;59.208;18.216;2023-01-20T09:01:55;-2.50;99.90
12682;DHT22;6405;59.208;18.216;2023-01-20T09:04:23;-2.40;99.90
12682;DHT22;6405;59.208;18.216;2023-01-20T09:06:50;-2.40;99.90
12682;DHT22;6405;59.208;18.216;2023-01-20T09:09:20;-2.30;99.90
12682;DHT22;6405;59.208;18.216;2023-01-20T09:11:47;-2.20;99.90
12682;DHT22;6405;59.208;18.216;2023-01-20T09:14:20;-2.10;99.90
12682;DHT22;6405;59.208;18.216;2023-01-20T09:16:47;-2.00;99.90
12682;DHT22;6405;59.208;18.216;2023-01-20T09:19:16;-1.90;99.90
12682;DHT22;6405;59.208;18.216;2023-01-20T09:21:43;-1.80;99.90
12682;DHT22;6405;59.208;18.216;2023-01-20T09:24:11;-1.70;99.90
12682;DHT22;6405;59.208;18.216;2023-01-20T09:26:40;-1.60;99.90
12682;DHT22;6405;59.208;18.216;2023-01-20T09:29:11;-1.50;99.90
12682;DHT22;6405;59.208;18.216;2023-01-20T09:31:42;-1.40;99.90
12682;DHT22;6405;59.208;18.216;2023-01-20T09:34:15;-1.30;99.90
12682;DHT22;6405;59.208;18.216;2023-01-20T09:36:53;-1.20;99.90
12682;DHT22;6405;59.208;18.216;2023-01-20T09:39:21;-1.10;99.90
12682;DHT22;6405;59.208;18.216;2023-01-20T09:42:24;-1.00;99.90
12682;DHT22;6405;59.208;18.216;2023-01-20T09:45:20;-0.90;99.90
12682;DHT22;6405;59.208;18.216;2023-01-20T09:48:10;-0.80;99.90
12682;DHT22;6405;59.208;18.216;2023-01-20T09:50:48;-0.70;99.90
12682;DHT22;6405;59.208;18.216;2023-01-20T09:53:49;-0.60;99.90
12682;DHT22;6405;59.208;18.216;2023-01-20T09:56:23;-0.50;99.90
12682;DHT22;6405;59.208;18.216;2023-01-20T09:59:07;-0.50;99.90
12682;DHT22;6405;59.208;18.216;2023-01-20T10:01:45;-0.40;99.90
12682;DHT22;6405;59.208;18.216;2023-01-20T10:04:39;-0.30;99.90
12682;DHT22;6405;59.208;18.216;2023-01-20T10:07:12;-0.20;99.90
12682;DHT22;6405;59.208;18.216;2023-01-20T10:13:12;-0.20;99.90
12682;DHT22;6405;59.208;18.216;2023-01-20T10:15:43;-0.10;99.90
12682;DHT22;6405;59.208;18.216;2023-01-20T10:18:15;-0.10;99.90
12682;DHT22;6405;59.208;18.216;2023-01-20T10:26:16;0.00;99.90
12682;DHT22;6405;59.208;18.216;2023-01-20T10:28:50;0.00;99.90
12682;DHT22;6405;59.208;18.216;2023-01-20T10:31:22;0.00;99.90
12682;DHT22;6405;59.208;18.216;2023-01-20T10:33:51;0.10;99.90
12682;DHT22;6405;59.208;18.216;2023-01-20T10:36:28;0.10;99.90
12682;DHT22;6405;59.208;18.216;2023-01-20T10:39:04;0.10;99.90
12682;DHT22;6405;59.208;18.216;2023-01-20T10:41:51;0.10;99.90
12682;DHT22;6405;59.208;18.216;2023-01-20T10:44:21;0.10;99.90
12682;DHT22;6405;59.208;18.216;2023-01-20T10:50:11;0.20;99.90
12682;DHT22;6405;59.208;18.216;2023-01-20T10:55:36;0.30;99.90
12682;DHT22;6405;59.208;18.216;2023-01-20T10:58:15;0.30;99.90
12682;DHT22;6405;59.208;18.216;2023-01-20T11:00:43;0.30;99.90
12682;DHT22;6405;59.208;18.216;2023-01-20T11:03:14;0.30;99.90
12682;DHT22;6405;59.208;18.216;2023-01-20T11:05:44;0.40;99.90
12682;DHT22;6405;59.208;18.216;2023-01-20T11:08:23;0.40;99.90
12682;DHT22;6405;59.208;18.216;2023-01-20T11:10:53;0.40;99.90
12682;DHT22;6405;59.208;18.216;2023-01-20T11:13:23;0.40;99.90
12682;DHT22;6405;59.208;18.216;2023-01-20T11:15:54;0.50;99.90
12682;DHT22;6405;59.208;18.216;2023-01-20T11:18:27;0.50;99.90
12682;DHT22;6405;59.208;18.216;2023-01-20T11:26:32;0.60;99.90
12682;DHT22;6405;59.208;18.216;2023-01-20T11:29:02;0.60;99.90
12682;DHT22;6405;59.208;18.216;2023-01-20T11:34:29;0.70;99.90
12682;DHT22;6405;59.208;18.216;2023-01-20T11:42:23;0.90;99.90
12682;DHT22;6405;59.208;18.216;2023-01-20T11:44:56;1.00;99.90
12682;DHT22;6405;59.208;18.216;2023-01-20T11:47:33;0.90;99.90
12682;DHT22;6405;59.208;18.216;2023-01-20T11:52:32;1.10;99.90
12682;DHT22;6405;59.208;18.216;2023-01-20T11:55:22;1.10;99.90
12682;DHT22;6405;59.208;18.216;2023-01-20T11:58:00;1.20;99.90
12682;DHT22;6405;59.208;18.216;2023-01-20T12:00:41;1.30;99.90
12682;DHT22;6405;59.208;18.216;2023-01-20T12:08:20;1.30;99.90
12682;DHT22;6405;59.208;18.216;2023-01-20T12:10:50;1.30;99.90
12682;DHT22;6405;59.208;18.216;2023-01-20T12:13:29;1.20;99.90
12682;DHT22;6405;59.208;18.216;2023-01-20T12:16:18;1.20;99.90
12682;DHT22;6405;59.208;18.216;2023-01-20T12:18:52;1.20;99.90
12682;DHT22;6405;59.208;18.216;2023-01-20T12:21:25;1.20;99.90
12682;DHT22;6405;59.208;18.216;2023-01-20T12:24:15;1.10;99.90
12682;DHT22;6405;59.208;18.216;2023-01-20T12:26:45;1.00;99.90
12682;DHT22;6405;59.208;18.216;2023-01-20T12:31:46;0.90;99.90
12682;DHT22;6405;59.208;18.216;2023-01-20T12:34:16;0.90;99.90
12682;DHT22;6405;59.208;18.216;2023-01-20T12:48:35;0.70;99.90
12682;DHT22;6405;59.208;18.216;2023-01-20T12:54:13;0.80;99.90
12682;DHT22;6405;59.208;18.216;2023-01-20T12:56:59;0.70;99.90
12682;DHT22;6405;59.208;18.216;2023-01-20T13:05:42;0.70;99.90
12682;DHT22;6405;59.208;18.216;2023-01-20T13:12:08;0.60;99.90
12682;DHT22;6405;59.208;18.216;2023-01-20T13:14:23;0.60;99.90
12682;DHT22;6405;59.208;18.216;2023-01-20T13:17:14;0.50;99.90
12682;DHT22;6405;59.208;18.216;2023-01-20T13:19:44;0.50;99.90
12682;DHT22;6405;59.208;18.216;2023-01-20T13:22:21;0.40;99.90
12682;DHT22;6405;59.208;18.216;2023-01-20T13:24:53;0.40;99.90
12682;DHT22;6405;59.208;18.216;2023-01-20T13:27:27;0.30;99.90
12682;DHT22;6405;59.208;18.216;2023-01-20T13:29:56;0.30;99.90
12682;DHT22;6405;59.208;18.216;2023-01-20T13:32:34;0.30;99.90
12682;DHT22;6405;59.208;18.216;2023-01-20T13:35:04;0.30;99.90
12682;DHT22;6405;59.208;18.216;2023-01-20T13:37:53;0.30;99.90
12682;DHT22;6405;59.208;18.216;2023-01-20T13:43:47;0.30;99.90
12682;DHT22;6405;59.208;18.216;2023-01-20T13:48:36;0.30;99.90
12682;DHT22;6405;59.208;18.216;2023-01-20T13:56:47;0.30;99.90
12682;DHT22;6405;59.208;18.216;2023-01-20T13:59:14;0.40;99.90
12682;DHT22;6405;59.208;18.216;2023-01-20T14:01:42;0.40;99.90
12682;DHT22;6405;59.208;18.216;2023-01-20T14:04:17;0.40;99.90
12682;DHT22;6405;59.208;18.216;2023-01-20T14:06:45;0.40;99.90
12682;DHT22;6405;59.208;18.216;2023-01-20T14:09:20;0.40;99.90
12682;DHT22;6405;59.208;18.216;2023-01-20T14:11:52;0.40;99.90
12682;DHT22;6405;59.208;18.216;2023-01-20T14:14:23;0.30;99.90
12682;DHT22;6405;59.208;18.216;2023-01-20T14:16:51;0.30;99.90
12682;DHT22;6405;59.208;18.216;2023-01-20T14:21:56;0.20;99.90
12682;DHT22;6405;59.208;18.216;2023-01-20T14:27:07;0.10;99.90
12682;DHT22;6405;59.208;18.216;2023-01-20T14:29:35;0.10;99.90
12682;DHT22;6405;59.208;18.216;2023-01-20T14:32:23;0.10;99.90
12682;DHT22;6405;59.208;18.216;2023-01-20T14:34:51;0.00;99.90
12682;DHT22;6405;59.208;18.216;2023-01-20T14:37:33;0.10;99.90
12682;DHT22;6405;59.208;18.216;2023-01-20T14:42:37;0.10;99.90
12682;DHT22;6405;59.208;18.216;2023-01-20T14:45:20;0.10;99.90
12682;DHT22;6405;59.208;18.216;2023-01-20T14:47:48;0.20;99.90
12682;DHT22;6405;59.208;18.216;2023-01-20T14:50:17;0.20;99.90
12682;DHT22;6405;59.208;18.216;2023-01-20T14:52:44;0.30;99.90
12682;DHT22;6405;59.208;18.216;2023-01-20T14:55:32;0.30;99.90
12682;DHT22;6405;59.208;18.216;2023-01-20T14:58:18;0.30;99.90
12682;DHT22;6405;59.208;18.216;2023-01-20T15:00:47;0.30;99.90
12682;DHT22;6405;59.208;18.216;2023-01-20T15:03:18;0.30;99.90
12682;DHT22;6405;59.208;18.216;2023-01-20T15:06:31;0.40;99.90
12682;DHT22;6405;59.208;18.216;2023-01-20T15:08:53;0.30;99.90
12682;DHT22;6405;59.208;18.216;2023-01-20T15:11:25;0.30;99.90
12682;DHT22;6405;59.208;18.216;2023-01-20T15:21:51;0.20;99.90
12682;DHT22;6405;59.208;18.216;2023-01-20T15:24:30;0.20;99.90
12682;DHT22;6405;59.208;18.216;2023-01-20T15:26:59;0.10;99.90
12682;DHT22;6405;59.208;18.216;2023-01-20T15:29:34;0.10;99.90
12682;DHT22;6405;59.208;18.216;2023-01-20T15:32:09;0.00;99.90
12682;DHT22;6405;59.208;18.216;2023-01-20T15:34:38;0.00;99.90
12682;DHT22;6405;59.208;18.216;2023-01-20T15:37:16;-0.10;99.90
12682;DHT22;6405;59.208;18.216;2023-01-20T15:39:49;0.00;99.90
12682;DHT22;6405;59.208;18.216;2023-01-20T15:42:17;-0.10;99.90
12682;DHT22;6405;59.208;18.216;2023-01-20T15:44:44;-0.10;99.90
12682;DHT22;6405;59.208;18.216;2023-01-20T15:47:24;-0.10;99.90
12682;DHT22;6405;59.208;18.216;2023-01-20T15:49:55;-0.10;99.90
12682;DHT22;6405;59.208;18.216;2023-01-20T15:52:22;-0.20;99.90
12682;DHT22;6405;59.208;18.216;2023-01-20T15:54:49;-0.30;99.90
12682;DHT22;6405;59.208;18.216;2023-01-20T15:57:17;-0.30;99.90
12682;DHT22;6405;59.208;18.216;2023-01-20T15:59:44;-0.40;99.90
12682;DHT22;6405;59.208;18.216;2023-01-20T16:02:19;-0.40;99.90
12682;DHT22;6405;59.208;18.216;2023-01-20T16:04:49;-0.40;99.90
12682;DHT22;6405;59.208;18.216;2023-01-20T16:07:17;-0.50;99.90
12682;DHT22;6405;59.208;18.216;2023-01-20T16:09:46;-0.50;99.90
12682;DHT22;6405;59.208;18.216;2023-01-20T16:12:15;-0.60;99.90
12682;DHT22;6405;59.208;18.216;2023-01-20T16:14:43;-0.60;99.90
12682;DHT22;6405;59.208;18.216;2023-01-20T16:17:18;-0.60;99.90
12682;DHT22;6405;59.208;18.216;2023-01-20T16:19:48;-0.60;99.90
12682;DHT22;6405;59.208;18.216;2023-01-20T16:22:15;-0.70;99.90
12682;DHT22;6405;59.208;18.216;2023-01-20T16:24:45;-0.70;99.90
12682;DHT22;6405;59.208;18.216;2023-01-20T16:27:19;-0.70;99.90
12682;DHT22;6405;59.208;18.216;2023-01-20T16:29:48;-0.80;99.90
12682;DHT22;6405;59.208;18.216;2023-01-20T16:32:16;-0.90;99.90
12682;DHT22;6405;59.208;18.216;2023-01-20T16:34:45;-0.90;99.90
12682;DHT22;6405;59.208;18.216;2023-01-20T16:37:13;-0.90;99.90
12682;DHT22;6405;59.208;18.216;2023-01-20T16:39:39;-1.00;99.90
12682;DHT22;6405;59.208;18.216;2023-01-20T16:42:14;-1.00;99.90
12682;DHT22;6405;59.208;18.216;2023-01-20T16:44:43;-1.00;99.90
12682;DHT22;6405;59.208;18.216;2023-01-20T16:47:10;-1.00;99.90
12682;DHT22;6405;59.208;18.216;2023-01-20T16:49:38;-1.00;99.90
12682;DHT22;6405;59.208;18.216;2023-01-20T16:52:06;-1.10;99.90
12682;DHT22;6405;59.208;18.216;2023-01-20T16:54:33;-1.10;99.90
12682;DHT22;6405;59.208;18.216;2023-01-20T16:56:59;-1.20;99.90
12682;DHT22;6405;59.208;18.216;2023-01-20T16:59:26;-1.20;99.90
12682;DHT22;6405;59.208;18.216;2023-01-20T17:01:53;-1.20;99.90
12682;DHT22;6405;59.208;18.216;2023-01-20T17:04:20;-1.30;99.90
12682;DHT22;6405;59.208;18.216;2023-01-20T17:06:51;-1.30;99.90
12682;DHT22;6405;59.208;18.216;2023-01-20T17:09:18;-1.40;99.90
12682;DHT22;6405;59.208;18.216;2023-01-20T17:11:45;-1.40;99.90
12682;DHT22;6405;59.208;18.216;2023-01-20T17:14:13;-1.50;99.90
12682;DHT22;6405;59.208;18.216;2023-01-20T17:16:43;-1.50;99.90
12682;DHT22;6405;59.208;18.216;2023-01-20T17:19:10;-1.60;99.90
12682;DHT22;6405;59.208;18.216;2023-01-20T17:21:39;-1.60;99.90
12682;DHT22;6405;59.208;18.216;2023-01-20T17:24:05;-1.60;99.90
12682;DHT22;6405;59.208;18.216;2023-01-20T17:26:33;-1.70;99.90
12682;DHT22;6405;59.208;18.216;2023-01-20T17:29:02;-1.70;99.90
12682;DHT22;6405;59.208;18.216;2023-01-20T17:31:30;-1.70;99.90
12682;DHT22;6405;59.208;18.216;2023-01-20T17:34:03;-1.80;99.90
12682;DHT22;6405;59.208;18.216;2023-01-20T17:36:32;-1.80;99.90
12682;DHT22;6405;59.208;18.216;2023-01-20T17:39:01;-1.90;99.90
12682;DHT22;6405;59.208;18.216;2023-01-20T17:41:30;-1.90;99.90
12682;DHT22;6405;59.208;18.216;2023-01-20T17:43:57;-1.90;99.90
12682;DHT22;6405;59.208;18.216;2023-01-20T17:46:26;-1.80;99.90